Time;durP1;ratioP1;P1;durP2;ratioP2;P2;SDS_P1;SDS_P2;PMS_P1;PMS_P2;Temp;Humidity;BMP_temperature;BMP_pressure;BME280_temperature;BME280_humidity;BME280_pressure;Samples;Min_cycle;Max_cycle;Signal;HPM_P1;HPM_P2
2023/04/17 00:00:58;;;;;;;51.10;32.67;;;12.70;88.30;;;11.93;72.01;101355.72;5087872;28;20063;-83
2023/04/17 00:03:26;;;;;;;47.28;30.92;;;12.70;88.20;;;11.95;71.85;101350.16;5069146;28;20055;-86
2023/04/17 00:05:53;;;;;;;47.83;31.77;;;12.70;88.20;;;11.93;72.04;101353.03;5072948;28;20071;-85
2023/04/17 00:08:20;;;;;;;60.22;33.90;;;12.70;88.10;;;11.94;72.00;101353.84;5078746;28;20064;-85
2023/04/17 00:10:48;;;;;;;48.45;30.27;;;12.80;88.10;;;11.94;71.83;101351.19;5084957;28;20492;-85
2023/04/17 00:13:16;;;;;;;52.03;33.47;;;12.70;88.10;;;11.96;71.84;101346.47;5100259;28;20078;-85
2023/04/17 00:15:43;;;;;;;50.60;32.35;;;12.70;88.00;;;11.96;71.97;101349.16;5109026;28;20060;-83
2023/04/17 00:18:10;;;;;;;52.33;32.42;;;12.70;88.10;;;11.95;72.24;101344.81;5082412;28;20101;-83
2023/04/17 00:20:37;;;;;;;53.40;32.78;;;12.70;88.30;;;11.93;72.18;101349.53;5092134;28;20040;-83
2023/04/17 00:23:06;;;;;;;50.13;31.38;;;12.70;88.40;;;11.92;72.15;101340.69;5090828;28;20111;-85
2023/04/17 00:25:33;;;;;;;50.50;30.90;;;12.70;88.30;;;11.93;72.14;101345.00;5091998;28;20132;-83
2023/04/17 00:28:01;;;;;;;57.05;32.63;;;12.60;88.10;;;11.94;72.06;101348.50;5090876;28;20122;-83
2023/04/17 00:30:29;;;;;;;47.33;30.30;;;12.60;88.20;;;11.90;72.40;101344.56;5094303;28;20039;-84
2023/04/17 00:32:56;;;;;;;49.45;31.63;;;12.60;88.50;;;11.90;72.03;101341.91;5083208;28;20039;-83
2023/04/17 00:35:24;;;;;;;51.85;32.20;;;12.60;88.30;;;11.89;72.13;101346.44;5089852;28;20132;-83
2023/04/17 00:37:51;;;;;;;50.50;32.65;;;12.60;88.30;;;11.89;72.06;101342.94;5090580;28;20062;-84
2023/04/17 00:40:19;;;;;;;49.95;30.88;;;12.70;88.30;;;11.90;72.20;101341.91;5058496;28;20036;-85
2023/04/17 00:42:51;;;;;;;54.15;32.92;;;12.70;88.50;;;11.89;72.35;101338.41;5056775;28;20412;-84
2023/04/17 00:45:21;;;;;;;49.38;31.85;;;12.60;88.40;;;11.90;72.28;101344.56;5087924;28;20136;-85
2023/04/17 00:47:49;;;;;;;50.33;31.23;;;12.70;88.60;;;11.89;72.09;101342.94;5078053;28;20048;-84
2023/04/17 00:50:17;;;;;;;53.97;32.22;;;12.60;88.20;;;11.89;72.08;101346.44;5090718;28;20046;-84
2023/04/17 00:52:46;;;;;;;51.53;31.77;;;12.70;88.30;;;11.91;72.10;101335.53;5092069;28;20071;-83
2023/04/17 00:55:15;;;;;;;51.03;32.58;;;12.70;88.30;;;11.91;72.06;101331.03;5080240;28;20048;-85
2023/04/17 00:57:43;;;;;;;46.40;31.50;;;12.70;88.30;;;11.90;72.20;101337.38;5090278;28;20157;-85
2023/04/17 01:00:14;;;;;;;48.45;29.80;;;12.60;88.40;;;11.89;72.47;101337.59;5087260;28;20043;-83
2023/04/17 01:02:43;;;;;;;;;;;12.60;88.70;;;11.88;72.14;101338.63;5073581;22;20492;-77
2023/04/17 01:05:10;;;;;;;47.10;31.30;;;12.60;88.50;;;11.82;72.34;101335.72;5062867;28;19929;-76
2023/04/17 01:07:39;;;;;;;48.90;31.35;;;12.60;88.50;;;11.84;72.50;101338.19;5049448;28;20072;-77
2023/04/17 01:10:08;;;;;;;44.70;30.08;;;12.60;88.70;;;11.80;72.50;101337.72;5043326;28;20489;-77
2023/04/17 01:12:36;;;;;;;53.35;30.73;;;12.50;88.70;;;11.79;72.51;101336.06;5061304;28;20045;-76
2023/04/17 01:15:04;;;;;;;52.72;30.55;;;12.50;88.60;;;11.81;72.21;101339.38;5046748;28;20055;-76
2023/04/17 01:17:31;;;;;;;51.65;31.83;;;12.50;88.50;;;11.81;72.34;101333.22;5050545;28;20523;-77
2023/04/17 01:20:00;;;;;;;46.78;31.00;;;12.60;88.50;;;11.81;72.51;101334.03;5067495;28;20119;-77
2023/04/17 01:22:27;;;;;;;40.70;29.15;;;12.60;88.50;;;11.83;72.39;101336.53;5052961;28;20085;-76
2023/04/17 01:24:59;;;;;;;52.78;31.60;;;12.60;88.60;;;11.82;72.56;101338.38;5048458;28;20783;-76
2023/04/17 01:27:31;;;;;;;43.85;29.50;;;12.50;88.70;;;11.81;72.45;101334.03;5051888;28;20413;-78
2023/04/17 01:29:59;;;;;;;48.13;31.02;;;12.60;88.50;;;11.79;72.55;101337.91;5047158;28;20513;-77
2023/04/17 01:32:26;;;;;;;45.17;30.63;;;12.50;88.70;;;11.80;72.32;101336.88;5066010;28;20033;-77
2023/04/17 01:34:53;;;;;;;47.10;30.60;;;12.50;88.60;;;11.78;72.48;101342.44;5049676;28;20052;-77
2023/04/17 01:37:21;;;;;;;42.72;28.92;;;12.50;88.90;;;11.80;72.45;101336.88;5067765;28;20037;-77
2023/04/17 01:39:48;;;;;;;43.83;28.80;;;12.50;88.70;;;11.81;72.25;101341.22;5060415;28;20045;-78
2023/04/17 01:42:17;;;;;;;48.95;31.88;;;12.50;88.70;;;11.81;72.26;101339.38;5033320;28;20102;-77
2023/04/17 01:44:44;;;;;;;47.25;30.20;;;12.50;88.60;;;11.81;72.41;101335.88;5045145;28;20091;-77
2023/04/17 01:47:11;;;;;;;49.85;32.45;;;12.50;88.70;;;11.78;72.31;101333.59;5064352;28;20094;-76
2023/04/17 01:49:39;;;;;;;44.47;29.73;;;12.50;88.60;;;11.79;72.33;101340.59;5069763;28;20177;-78
2023/04/17 01:52:06;;;;;;;51.50;32.30;;;12.50;88.70;;;11.78;72.21;101339.75;5050023;28;20040;-75
2023/04/17 01:54:34;;;;;;;48.75;31.15;;;12.50;88.70;;;11.78;72.56;101338.94;5069659;28;20505;-78
2023/04/17 01:57:01;;;;;;;45.88;30.08;;;12.50;88.70;;;11.77;72.32;101343.47;5050344;28;20043;-75
2023/04/17 01:59:30;;;;;;;45.75;30.20;;;12.50;88.80;;;11.77;72.28;101345.31;5039921;28;20476;-77
2023/04/17 02:01:57;;;;;;;49.42;32.22;;;12.50;88.70;;;11.78;72.29;101341.63;5050178;28;20128;-78
2023/04/17 02:04:25;;;;;;;48.88;31.13;;;12.50;88.70;;;11.78;72.21;101344.28;5050488;28;20556;-76
2023/04/17 02:06:52;;;;;;;45.45;30.85;;;12.50;88.50;;;11.80;72.37;101344.91;5051058;28;20044;-76
2023/04/17 02:09:19;;;;;;;48.22;32.58;;;12.50;88.70;;;11.79;72.27;101346.75;5069335;28;20045;-77
2023/04/17 02:11:46;;;;;;;50.85;32.08;;;12.50;88.50;;;11.79;72.32;101346.75;5051462;28;20040;-78
2023/04/17 02:14:14;;;;;;;47.00;29.85;;;12.50;88.40;;;11.79;72.14;101346.75;5066897;28;20144;-78
2023/04/17 02:16:44;;;;;;;48.08;30.95;;;12.60;88.30;;;11.79;72.06;101346.75;5044663;28;20056;-76
2023/04/17 02:19:11;;;;;;;50.08;31.42;;;12.70;88.50;;;11.78;72.08;101345.13;5050970;28;20052;-76
2023/04/17 02:21:38;;;;;;;46.88;31.38;;;12.50;88.30;;;11.79;72.19;101346.75;5046916;28;20040;-78
2023/04/17 02:24:06;;;;;;;46.50;30.38;;;12.50;88.40;;;11.79;72.12;101340.59;5051204;28;20483;-77
2023/04/17 02:26:35;;;;;;;50.00;32.40;;;12.50;88.30;;;11.79;72.13;101337.91;5050852;28;20044;-76
2023/04/17 02:29:02;;;;;;;48.88;31.40;;;12.60;88.20;;;11.79;72.15;101341.41;5067610;28;20052;-77
2023/04/17 02:31:31;;;;;;;48.25;32.17;;;12.50;88.40;;;11.79;72.20;101352.09;5043452;28;20048;-78
2023/04/17 02:33:59;;;;;;;45.60;30.20;;;12.50;88.50;;;11.78;72.20;101355.81;5065167;28;20432;-76
2023/04/17 02:36:27;;;;;;;45.63;30.33;;;12.50;88.40;;;11.77;72.22;101343.47;5041070;28;20046;-75
2023/04/17 02:38:54;;;;;;;47.17;30.45;;;12.50;88.40;;;11.77;72.28;101343.47;5046336;28;20203;-77
2023/04/17 02:41:21;;;;;;;50.45;30.98;;;12.50;88.50;;;11.75;72.29;101344.66;5049519;28;20056;-77
2023/04/17 02:43:49;;;;;;;46.17;30.42;;;12.50;88.60;;;11.75;72.39;101348.16;5047425;28;20095;-78
2023/04/17 02:46:18;;;;;;;52.92;32.03;;;12.50;88.70;;;11.75;72.30;101355.38;5061733;28;20043;-78
2023/04/17 02:48:45;;;;;;;46.20;31.00;;;12.60;88.70;;;11.74;72.35;101349.19;5039292;28;20076;-78
2023/04/17 02:51:13;;;;;;;44.88;30.52;;;12.40;88.70;;;11.72;72.25;101359.28;5067905;28;20040;-76
2023/04/17 02:53:41;;;;;;;43.03;29.48;;;12.40;88.60;;;11.68;72.23;101359.84;5051496;28;20056;-77
2023/04/17 02:56:08;;;;;;;41.40;27.63;;;12.40;88.70;;;11.64;71.42;101362.09;5049477;28;20447;-77
2023/04/17 02:58:36;;;;;;;41.95;27.17;;;12.30;87.90;;;11.58;70.80;101365.56;5051670;28;20417;-76
2023/04/17 03:01:05;;;;;;;38.38;25.98;;;12.30;87.40;;;11.57;70.10;101363.91;5050322;28;20827;-77
2023/04/17 03:03:40;;;;;;;38.83;25.48;;;12.20;87.00;;;11.43;69.17;101362.16;5050249;28;20071;-76
2023/04/17 03:06:12;;;;;;;39.53;26.10;;;12.20;86.10;;;11.44;68.88;101363.81;5047617;28;20059;-77
2023/04/17 03:08:39;;;;;;;35.25;25.75;;;12.20;86.00;;;11.43;68.38;101364.84;5050637;28;20592;-76
2023/04/17 03:11:07;;;;;;;38.10;26.73;;;12.20;85.40;;;11.40;68.75;101362.53;5050333;28;20044;-76
2023/04/17 03:13:36;;;;;;;38.85;25.90;;;12.10;85.90;;;11.39;68.45;101367.06;5050106;28;20690;-78
2023/04/17 03:16:04;;;;;;;40.92;26.00;;;12.10;85.70;;;11.39;68.28;101360.91;5050795;28;20048;-78
2023/04/17 03:18:35;;;;;;;37.17;25.17;;;12.10;85.50;;;11.40;68.17;101365.22;5046341;28;20059;-76
2023/04/17 03:21:02;;;;;;;36.05;24.85;;;12.10;85.30;;;11.41;67.97;101369.53;5061231;28;20043;-77
2023/04/17 03:23:31;;;;;;;37.38;25.02;;;12.10;85.50;;;11.40;68.10;101365.22;5040700;28;20131;-77
2023/04/17 03:25:58;;;;;;;37.95;26.27;;;12.10;85.50;;;11.41;68.22;101364.19;5049905;28;20048;-77
2023/04/17 03:28:26;;;;;;;31.98;23.45;;;12.10;85.50;;;11.42;68.03;101365.81;5050790;28;20671;-76
2023/04/17 03:30:54;;;;;;;39.63;26.23;;;12.10;85.20;;;11.39;67.64;101366.25;5049238;28;20053;-80
2023/04/17 03:33:21;;;;;;;40.90;26.83;;;12.10;85.00;;;11.38;67.93;101369.94;5050477;28;20044;-78
2023/04/17 03:35:48;;;;;;;37.83;25.90;;;12.10;85.10;;;11.38;67.98;101367.25;5049756;28;20560;-79
2023/04/17 03:38:16;;;;;;;35.72;25.48;;;12.10;85.30;;;11.38;67.61;101369.94;5045254;28;20422;-77
2023/04/17 03:40:46;;;;;;;42.38;28.05;;;12.10;85.20;;;11.34;67.45;101366.81;5044318;28;20143;-77
2023/04/17 03:43:13;;;;;;;36.83;25.52;;;12.00;84.90;;;11.32;67.62;101372.38;5050671;28;20053;-77
2023/04/17 03:45:41;;;;;;;37.38;27.38;;;12.00;85.10;;;11.34;67.67;101374.84;5050170;28;20102;-77
2023/04/17 03:48:08;;;;;;;39.78;27.55;;;12.10;85.20;;;11.35;67.90;101368.47;5069714;28;20478;-75
2023/04/17 03:50:36;;;;;;;37.05;25.83;;;12.00;85.30;;;11.37;67.76;101373.59;5065460;28;20066;-77
2023/04/17 03:53:03;;;;;;;39.70;26.25;;;12.10;85.30;;;11.37;67.68;101368.25;5071217;28;20036;-78
2023/04/17 03:55:31;;;;;;;41.08;27.52;;;12.00;85.10;;;11.35;67.52;101379.97;5048446;28;20044;-75
2023/04/17 03:58:00;;;;;;;40.08;27.40;;;12.00;84.90;;;11.33;67.18;101374.00;5038625;28;20053;-76
2023/04/17 04:00:30;;;;;;;40.67;27.42;;;12.00;84.90;;;11.29;67.11;101375.41;5038861;28;20047;-77
2023/04/17 04:03:02;;;;;;;45.83;27.85;;;12.00;84.70;;;11.26;67.16;101375.78;5053703;28;20048;-77
2023/04/17 04:05:36;;;;;;;38.85;27.02;;;12.00;84.70;;;11.24;67.14;101383.19;5053956;28;20080;-75
2023/04/17 04:08:04;;;;;;;38.92;28.40;;;11.90;84.90;;;11.26;67.52;101381.13;5066366;28;20048;-75
2023/04/17 04:10:38;;;;;;;43.22;28.20;;;12.00;85.10;;;11.27;67.43;101390.81;5052104;28;20378;-76
2023/04/17 04:13:07;;;;;;;42.03;29.35;;;12.00;84.90;;;11.25;67.17;101395.50;5049186;28;20045;-77
2023/04/17 04:15:34;;;;;;;44.70;27.77;;;11.90;84.80;;;11.23;66.97;101386.88;5046662;28;20139;-76
2023/04/17 04:18:05;;;;;;;38.53;27.33;;;11.90;84.70;;;11.17;67.06;101386.78;5069098;28;20036;-78
2023/04/17 04:20:32;;;;;;;43.70;29.00;;;11.80;84.50;;;11.12;67.21;101382.03;5046790;28;20564;-77
2023/04/17 04:23:15;;;;;;;40.10;26.85;;;11.80;84.60;;;11.13;66.95;101389.03;5046896;28;20056;-77
2023/04/17 04:25:43;;;;;;;39.33;27.08;;;11.80;84.50;;;11.13;67.09;101389.03;5057163;28;20665;-77
2023/04/17 04:28:26;;;;;;;42.85;28.60;;;11.90;84.70;;;11.13;67.18;101391.72;5053684;28;20384;-78
2023/04/17 04:30:54;;;;;;;38.58;27.50;;;11.80;84.80;;;11.14;67.02;101388.03;5045015;28;20104;-78
2023/04/17 04:33:28;;;;;;;45.50;28.52;;;11.80;84.90;;;11.16;67.34;101395.81;5036559;28;20056;-77
2023/04/17 04:36:00;;;;;;;38.83;26.70;;;11.80;84.80;;;11.15;67.21;101397.69;5052904;28;20080;-77
2023/04/17 04:38:31;;;;;;;39.95;28.25;;;11.90;84.90;;;11.16;66.81;101393.16;5033878;28;20048;-79
2023/04/17 04:41:04;;;;;;;41.58;27.23;;;11.80;84.50;;;11.13;66.96;101396.22;5040708;28;20045;-78
2023/04/17 04:43:34;;;;;;;38.72;26.08;;;11.80;84.50;;;11.13;67.03;101402.41;5037169;28;20057;-76
2023/04/17 04:46:03;;;;;;;38.37;26.33;;;12.00;84.70;;;11.15;67.12;101403.00;5051811;28;20055;-77
2023/04/17 04:48:33;;;;;;;41.13;26.65;;;11.80;84.70;;;11.15;66.96;101408.34;5053123;28;20307;-76
2023/04/17 04:51:00;;;;;;;41.40;26.75;;;11.80;84.50;;;11.13;66.66;101407.72;5070334;28;20064;-78
2023/04/17 04:53:27;;;;;;;42.17;28.02;;;11.80;84.30;;;11.12;66.82;101413.25;5045248;28;20075;-76
2023/04/17 04:55:57;;;;;;;41.13;27.27;;;11.80;84.30;;;11.12;66.71;101402.56;5051087;28;20071;-78
2023/04/17 04:58:28;;;;;;;39.15;26.35;;;11.80;84.40;;;11.12;66.79;101407.91;5043064;28;20115;-76
2023/04/17 05:00:59;;;;;;;40.78;26.67;;;11.80;84.30;;;11.13;66.73;101405.06;5053619;28;20040;-78
2023/04/17 05:03:33;;;;;;;38.13;27.38;;;11.80;84.40;;;11.12;66.82;101414.06;5038648;28;20056;-76
2023/04/17 05:06:01;;;;;;;39.95;27.98;;;11.80;84.50;;;11.13;66.83;101407.72;5053132;28;20147;-76
2023/04/17 05:08:37;;;;;;;41.65;27.35;;;11.80;84.50;;;11.14;67.13;101414.72;5047869;28;20053;-77
2023/04/17 05:11:10;;;;;;;42.08;27.45;;;11.90;84.70;;;11.13;66.95;101406.91;5049659;28;20128;-76
2023/04/17 05:13:37;;;;;;;41.42;27.75;;;11.80;84.70;;;11.14;67.38;101413.91;5046117;28;20132;-77
2023/04/17 05:16:08;;;;;;;43.03;29.27;;;11.80;84.90;;;11.13;67.94;101415.75;5049833;28;20520;-76
2023/04/17 05:18:35;;;;;;;44.15;29.80;;;11.80;85.30;;;11.14;68.66;101422.72;5051998;28;20545;-76
2023/04/17 05:21:02;;;;;;;48.85;33.65;;;11.80;86.10;;;11.06;69.47;101426.34;5052882;28;20067;-76
2023/04/17 05:23:30;;;;;;;50.70;31.95;;;11.80;86.80;;;11.04;69.66;101428.38;5050230;28;20576;-75
2023/04/17 05:25:57;;;;;;;45.95;30.50;;;11.70;86.90;;;11.02;69.67;101427.72;5045348;28;20129;-78
2023/04/17 05:28:26;;;;;;;50.10;31.08;;;11.70;87.00;;;11.03;69.96;101431.25;5052082;28;20043;-77
2023/04/17 05:30:56;;;;;;;48.42;31.58;;;11.70;87.20;;;10.98;70.22;101429.16;5045264;28;20041;-77
2023/04/17 05:33:34;;;;;;;49.95;32.17;;;11.70;87.30;;;11.01;70.31;101423.41;5062638;28;20385;-76
2023/04/17 05:36:02;;;;;;;51.15;31.58;;;11.70;87.70;;;11.03;70.59;101436.59;5062216;28;20113;-77
2023/04/17 05:38:34;;;;;;;;;;;11.80;87.70;;;11.00;70.64;101429.78;5064220;28;20045;-75
2023/04/17 05:41:01;;;;;;;49.33;30.73;;;11.70;87.70;;;11.00;70.58;101437.78;5040206;28;19925;-76
2023/04/17 05:43:28;;;;;;;47.60;31.08;;;11.70;87.80;;;11.04;71.13;101438.25;5043450;28;20055;-79
2023/04/17 05:45:56;;;;;;;47.53;30.70;;;11.70;87.90;;;11.02;70.55;101434.91;5052351;28;20052;-77
2023/04/17 05:48:23;;;;;;;50.10;31.88;;;11.70;87.80;;;10.99;70.76;101433.47;5051125;28;20117;-75
2023/04/17 05:50:53;;;;;;;52.38;32.35;;;11.70;87.90;;;10.95;70.89;101432.19;5046000;28;20048;-75
2023/04/17 05:53:20;;;;;;;44.92;30.65;;;11.70;87.90;;;10.95;71.09;101440.19;5068764;28;20075;-75
2023/04/17 05:55:54;;;;;;;49.38;32.58;;;11.60;87.90;;;10.97;71.00;101437.34;5046415;28;20044;-75
2023/04/17 05:58:21;;;;;;;47.35;30.92;;;11.60;88.10;;;10.98;70.97;101436.31;5036785;28;20061;-76
2023/04/17 06:00:49;;;;;;;50.83;33.42;;;11.70;87.90;;;10.99;70.81;101446.00;5046648;28;20504;-75
2023/04/17 06:03:19;;;;;;;46.50;30.95;;;11.60;87.80;;;10.99;70.79;101443.31;5045022;28;20041;-77
2023/04/17 06:05:50;;;;;;;41.72;28.83;;;11.60;87.90;;;11.00;70.43;101442.31;5052028;28;20048;-76
2023/04/17 06:08:19;;;;;;;46.30;29.50;;;11.70;87.70;;;10.98;70.09;101450.50;5051668;28;20135;-74
2023/04/17 06:10:48;;;;;;;42.80;28.58;;;11.60;87.10;;;10.96;70.02;101446.38;5050872;28;20412;-74
2023/04/17 06:13:16;;;;;;;45.28;30.02;;;11.60;87.10;;;10.95;69.66;101444.72;5068064;28;20043;-75
2023/04/17 06:15:46;;;;;;;42.03;28.00;;;11.70;87.00;;;10.95;69.57;101450.06;5048848;28;20052;-74
2023/04/17 06:18:16;;;;;;;43.08;28.83;;;11.60;86.90;;;10.96;69.37;101451.69;5069108;28;20553;-74
2023/04/17 06:20:43;;;;;;;42.65;27.50;;;11.70;86.90;;;10.96;69.59;101457.03;5050680;28;20055;-82
2023/04/17 06:23:10;;;;;;;47.28;28.80;;;11.70;86.90;;;10.99;69.55;101454.00;5050608;28;20044;-79
2023/04/17 06:25:39;;;;;;;42.53;29.83;;;11.70;86.80;;;11.00;69.60;101459.16;5066816;28;20305;-81
2023/04/17 06:28:07;;;;;;;49.72;29.42;;;11.70;87.00;;;10.99;69.59;101457.50;5047687;28;20066;-82
2023/04/17 06:30:35;;;;;;;46.88;30.02;;;11.70;86.90;;;11.01;69.68;101455.44;5038110;28;20047;-84
2023/04/17 06:33:03;;;;;;;48.30;32.13;;;11.70;87.00;;;11.05;70.06;101462.06;5055989;28;20045;-82
2023/04/17 06:35:31;;;;;;;49.75;30.75;;;11.70;87.40;;;10.98;69.54;101463.84;5050870;28;20040;-82
2023/04/17 06:38:10;;;;;;;49.20;32.40;;;11.70;86.90;;;11.00;69.83;101466.31;5044467;28;20052;-86
2023/04/17 06:40:39;;;;;;;47.42;31.42;;;11.70;87.00;;;11.03;69.68;101464.13;5046677;28;20049;-85
2023/04/17 06:43:07;;;;;;;41.80;29.10;;;11.70;86.90;;;11.05;69.54;101474.59;5044373;28;20595;-83
2023/04/17 06:45:41;;;;;;;44.30;30.45;;;11.80;86.70;;;10.98;68.81;101482.53;5036708;28;20527;-86
2023/04/17 06:48:08;;;;;;;48.78;30.98;;;11.70;86.10;;;10.89;69.06;101474.84;5050738;28;20050;-86
2023/04/17 06:50:35;;;;;;;43.75;29.55;;;11.70;86.30;;;10.91;69.08;101475.47;5068910;28;20145;-88
2023/04/17 06:53:03;;;;;;;44.58;28.23;;;11.60;86.30;;;10.97;69.23;101482.72;5046797;28;20044;-87
2023/04/17 06:55:30;;;;;;;47.75;29.63;;;11.70;86.70;;;11.00;69.24;101477.81;5063414;28;20403;-85
2023/04/17 06:57:59;;;;;;;41.38;28.52;;;11.70;86.60;;;11.02;68.78;101482.97;5062896;28;20099;-87
2023/04/17 07:00:28;;;;;;;45.30;28.52;;;11.70;86.30;;;10.97;68.65;101482.72;5040183;28;20102;-87
2023/04/17 07:02:56;;;;;;;41.10;28.73;;;11.70;86.10;;;10.91;68.79;101480.81;5077718;22;20052;-77
2023/04/17 07:05:23;;;;;;;41.80;28.45;;;11.60;86.10;;;10.95;68.91;101480.22;5050582;28;20041;-78
2023/04/17 07:07:52;;;;;;;48.75;30.73;;;11.70;86.40;;;10.95;68.66;101488.25;5053971;28;20045;-78
2023/04/17 07:10:20;;;;;;;46.40;30.60;;;11.70;86.10;;;10.92;68.76;101495.78;5062246;28;20040;-76
2023/04/17 07:12:48;;;;;;;44.35;29.95;;;11.70;86.00;;;10.87;68.82;101493.69;5042255;28;20063;-78
2023/04/17 07:15:18;;;;;;;46.33;31.13;;;11.60;86.00;;;10.91;68.97;101500.31;5029016;28;20129;-77
2023/04/17 07:17:45;;;;;;;42.58;29.85;;;11.50;86.30;;;10.91;68.70;101496.81;5043870;28;20043;-78
2023/04/17 07:20:13;;;;;;;43.60;30.23;;;11.60;86.00;;;10.91;68.92;101502.16;5044156;28;20738;-77
2023/04/17 07:22:40;;;;;;;46.85;30.05;;;11.60;86.30;;;10.92;69.07;101503.81;5051403;28;20049;-76
2023/04/17 07:25:08;;;;;;;41.65;29.70;;;11.60;86.30;;;10.96;69.07;101505.91;5058709;28;20075;-77
2023/04/17 07:27:37;;;;;;;44.13;31.00;;;11.60;86.40;;;10.99;68.99;101505.53;5048840;28;20124;-78
2023/04/17 07:30:07;;;;;;;50.90;32.38;;;11.70;86.40;;;11.03;68.73;101508.66;5048490;28;20120;-78
2023/04/17 07:32:36;;;;;;;47.97;32.25;;;11.70;86.30;;;11.05;69.07;101509.28;5062419;28;20072;-77
2023/04/17 07:35:05;;;;;;;49.67;32.78;;;11.70;86.50;;;11.07;68.90;101517.94;5022884;28;20172;-78
2023/04/17 07:37:33;;;;;;;50.17;32.22;;;11.80;86.30;;;11.06;68.60;101518.94;5037058;28;20184;-78
2023/04/17 07:40:00;;;;;;;51.92;34.40;;;11.80;86.10;;;11.05;68.84;101509.28;5052787;28;20528;-77
2023/04/17 07:42:28;;;;;;;52.60;33.22;;;11.80;86.10;;;11.08;68.97;101520.44;5035201;28;20698;-76
2023/04/17 07:44:55;;;;;;;49.88;32.88;;;11.80;86.30;;;11.12;68.95;101520.03;5048354;28;20036;-77
2023/04/17 07:47:23;;;;;;;51.65;34.05;;;11.80;86.30;;;11.09;68.63;101522.06;5058773;28;20068;-78
2023/04/17 07:49:51;;;;;;;48.45;33.22;;;11.80;86.00;;;11.06;68.57;101527.78;5049356;28;20045;-78
2023/04/17 07:52:19;;;;;;;48.00;32.53;;;11.80;86.00;;;11.08;68.71;101523.09;5036256;28;20037;-78
2023/04/17 07:54:46;;;;;;;49.15;33.22;;;11.80;86.10;;;11.08;68.75;101528.44;5039088;28;20434;-76
2023/04/17 07:57:16;;;;;;;47.63;33.38;;;11.80;86.10;;;11.14;68.84;101521.50;5039235;28;20053;-77
2023/04/17 07:59:44;;;;;;;47.83;31.85;;;11.80;86.20;;;11.18;68.44;101517.47;5046522;28;20072;-79
2023/04/17 08:02:11;;;;;;;48.97;32.63;;;11.90;85.90;;;11.21;68.32;101535.75;5028806;28;20402;-78
2023/04/17 08:04:38;;;;;;;46.92;33.20;;;11.90;85.70;;;11.21;68.11;101529.59;5045864;28;20072;-78
2023/04/17 08:07:09;;;;;;;47.00;32.83;;;11.90;85.70;;;11.27;68.31;101531.50;5051323;28;20044;-77
2023/04/17 08:09:37;;;;;;;45.38;31.30;;;11.90;85.90;;;11.31;68.27;101540.78;5037044;28;20045;-78
2023/04/17 08:12:05;;;;;;;44.20;30.58;;;11.90;85.80;;;11.31;67.86;101538.94;5045388;28;20059;-75
2023/04/17 08:14:32;;;;;;;47.13;30.55;;;12.00;85.30;;;11.30;67.56;101536.47;5046420;28;20041;-77
2023/04/17 08:16:59;;;;;;;44.42;29.95;;;12.00;85.10;;;11.29;67.30;101540.97;5049393;28;20041;-76
2023/04/17 08:19:27;;;;;;;45.88;29.38;;;12.00;84.70;;;11.27;67.26;101537.69;5051537;28;20567;-77
2023/04/17 08:22:02;;;;;;;42.33;28.92;;;12.00;84.70;;;11.31;67.45;101535.44;5042805;28;20037;-76
2023/04/17 08:24:31;;;;;;;42.58;29.27;;;12.00;85.00;;;11.33;67.42;101541.44;5036949;28;20045;-76
2023/04/17 08:26:59;;;;;;;44.85;28.85;;;12.00;84.90;;;11.37;67.56;101539.19;5032859;28;20055;-76
2023/04/17 08:32:07;;;;;;;;;;;12.10;84.90;;;11.31;66.81;101546.94;5396794;22;20073;-85
2023/04/17 08:34:35;;;;;;;46.88;30.42;;;12.10;84.30;;;11.30;66.96;101547.97;5022587;28;19986;-90
2023/04/17 08:37:02;;;;;;;43.03;30.05;;;12.00;84.50;;;11.34;67.34;101549.25;5046309;28;20045;-89
2023/04/17 08:39:30;;;;;;;46.55;31.05;;;12.10;84.90;;;11.40;67.45;101546.84;5013164;28;20065;-91
2023/04/17 08:42:01;;;;;;;43.88;30.67;;;12.10;84.90;;;11.40;67.34;101552.19;5021496;28;20152;-83
2023/04/17 08:47:07;;;;;;;42.40;29.77;;;12.10;84.70;;;11.50;67.30;101550.03;5054950;28;20071;-80
2023/04/17 08:49:36;;;;;;;41.80;28.90;;;12.20;84.70;;;11.56;67.48;101557.25;5062231;28;20052;-80
2023/04/17 08:52:04;;;;;;;42.22;29.50;;;12.30;85.10;;;11.62;67.18;101550.34;5069554;28;20068;-83
2023/04/17 08:54:34;;;;;;;44.30;31.33;;;12.30;84.80;;;11.64;67.17;101557.16;5053540;28;20051;-78
2023/04/17 08:57:03;;;;;;;45.58;29.88;;;12.40;84.70;;;11.67;66.56;101554.09;5074319;28;20470;-78
2023/04/17 08:59:31;;;;;;;45.38;29.33;;;12.40;83.90;;;11.67;66.37;101551.44;5052370;28;20679;-81
2023/04/17 09:02:03;;;;;;;42.58;28.30;;;12.40;84.10;;;11.73;66.37;101557.84;5055855;28;20091;-80
2023/04/17 09:04:40;;;;;;;41.72;28.38;;;12.50;83.90;;;11.75;65.69;101558.47;5063435;28;20068;-80
2023/04/17 09:07:10;;;;;;;35.85;25.85;;;12.50;83.30;;;11.74;64.92;101551.47;5073555;28;20491;-79
2023/04/17 09:09:50;;;;;;;37.97;25.73;;;12.50;82.50;;;11.72;63.71;101558.88;5056239;28;20044;-79
2023/04/17 09:12:17;;;;;;;38.40;26.13;;;12.40;81.20;;;11.73;64.16;101564.03;5065507;28;20385;-80
2023/04/17 09:14:45;;;;;;;35.70;24.50;;;12.50;81.80;;;11.73;64.03;101561.34;5056233;28;20036;-79
2023/04/17 09:17:12;;;;;;;38.10;24.40;;;12.50;81.50;;;11.73;63.09;101558.66;5045583;28;20045;-80
2023/04/17 09:20:06;;;;;;;33.47;23.63;;;12.50;80.60;;;11.74;63.15;101549.63;5065528;28;20052;-77
2023/04/17 09:22:34;;;;;;;37.13;25.17;;;12.50;80.70;;;11.80;63.20;101556.03;5059326;28;20048;-81
2023/04/17 09:25:04;;;;;;;34.47;24.52;;;12.60;80.90;;;11.87;63.11;101566.84;5081420;28;20124;-81
2023/04/17 09:27:31;;;;;;;33.45;23.75;;;12.60;80.60;;;11.91;62.83;101563.59;5064553;28;20093;-83
2023/04/17 09:30:01;;;;;;;34.75;24.38;;;12.60;80.20;;;11.95;62.59;101564.03;5051378;28;20041;-83
2023/04/17 09:32:30;;;;;;;34.13;22.20;;;12.90;80.20;;;12.00;62.69;101575.78;5066309;28;20040;-79
2023/04/17 09:35:00;;;;;;;37.58;22.88;;;12.70;80.30;;;12.02;61.84;101563.06;5048684;28;20045;-78
2023/04/17 09:37:49;;;;;;;37.88;22.45;;;12.80;79.50;;;11.99;59.88;101563.44;5073660;28;20123;-79
2023/04/17 09:40:19;;;;;;;28.67;20.30;;;12.80;77.40;;;11.99;58.84;101570.63;5070413;28;20454;-81
2023/04/17 09:42:58;;;;;;;30.75;20.10;;;12.80;76.20;;;12.03;58.52;101558.53;5059229;28;20044;-81
2023/04/17 09:45:31;;;;;;;29.08;20.35;;;12.80;76.00;;;12.05;58.00;101562.69;5064564;28;20052;-81
2023/04/17 09:47:59;;;;;;;32.38;19.35;;;12.80;75.30;;;12.08;58.60;101564.94;5062401;28;20052;-80
2023/04/17 09:50:27;;;;;;;28.60;18.05;;;12.90;76.10;;;12.15;56.89;101564.16;5068805;28;20047;-81
2023/04/17 09:52:56;;;;;;;25.33;15.65;;;12.90;74.10;;;12.23;56.23;101567.53;5070272;28;20286;-81
2023/04/17 09:55:28;;;;;;;24.05;15.27;;;13.00;73.50;;;12.24;54.88;101565.69;5076680;28;20082;-82
2023/04/17 09:57:58;;;;;;;23.83;15.80;;;13.00;71.60;;;12.30;55.56;101556.91;5058072;28;20048;-81
2023/04/17 10:00:27;;;;;;;20.92;14.25;;;13.10;72.00;;;12.32;54.77;101555.66;5069415;28;20119;-82
2023/04/17 10:02:56;;;;;;;22.08;15.55;;;13.10;71.50;;;12.40;55.43;101557.38;5090012;28;20036;-82
2023/04/17 10:05:27;;;;;;;23.33;14.95;;;13.10;72.10;;;12.41;53.58;101559.03;5082612;28;20052;-81
2023/04/17 10:07:55;;;;;;;23.80;15.30;;;13.10;70.10;;;12.45;53.13;101554.94;5064854;28;20500;-82
2023/04/17 10:10:29;;;;;;;23.00;14.38;;;13.20;69.70;;;12.46;52.90;101551.22;5076407;28;20047;-82
2023/04/17 10:13:01;;;;;;;24.20;15.75;;;13.20;69.20;;;12.50;53.41;101552.50;5081385;28;20044;-81